createdAt,value
2018-12-04T00:00:45.606Z,3.27
2018-12-04T00:03:22.160Z,6.13
2018-12-04T00:05:58.623Z,2.80
2018-12-04T00:08:34.917Z,2.80
2018-12-04T00:11:10.122Z,5.53
2018-12-04T00:13:45.527Z,5.77
2018-12-04T00:16:20.882Z,3.67
2018-12-04T00:18:56.124Z,0.77
2018-12-04T00:21:31.490Z,1.80
2018-12-04T00:24:06.803Z,3.23
2018-12-04T00:26:42.011Z,1.40
2018-12-04T00:29:17.542Z,2.43
2018-12-04T00:31:52.869Z,4.77
2018-12-04T00:34:28.203Z,2.47
2018-12-04T00:37:03.535Z,0.70
2018-12-04T00:39:38.958Z,2.27
2018-12-04T00:42:14.341Z,0.83
2018-12-04T00:44:49.601Z,1.97
2018-12-04T00:47:24.895Z,1.53
2018-12-04T00:50:00.338Z,1.47
2018-12-04T00:52:35.664Z,1.20
2018-12-04T00:55:11.107Z,1.60
2018-12-04T00:57:46.531Z,1.00
2018-12-04T01:00:21.982Z,2.13
2018-12-04T01:02:57.468Z,1.73
2018-12-04T01:05:34.066Z,2.23
2018-12-04T01:08:09.569Z,4.00
2018-12-04T01:10:44.864Z,1.03
2018-12-04T01:13:20.349Z,1.83
2018-12-04T01:15:55.585Z,2.93
2018-12-04T01:18:30.778Z,1.40
2018-12-04T01:21:06.287Z,2.40
2018-12-04T01:23:41.730Z,0.60
2018-12-04T01:26:16.985Z,2.53
2018-12-04T01:28:52.334Z,2.53
2018-12-04T01:31:27.792Z,0.87
2018-12-04T01:34:03.279Z,0.70
2018-12-04T01:36:38.572Z,1.97
2018-12-04T01:39:14.073Z,2.07
2018-12-04T01:41:49.310Z,2.03
2018-12-04T01:44:24.737Z,3.30
2018-12-04T01:47:00.145Z,2.77
2018-12-04T01:49:35.366Z,1.43
2018-12-04T01:52:10.710Z,2.20
2018-12-04T01:54:46.005Z,2.17
2018-12-04T01:57:21.396Z,1.10
2018-12-04T01:59:56.661Z,6.10
2018-12-04T02:02:32.158Z,1.23
2018-12-04T02:05:07.385Z,2.93
2018-12-04T02:07:42.687Z,2.90
2018-12-04T02:10:18.058Z,1.50
2018-12-04T02:12:53.568Z,4.80
2018-12-04T02:15:29.425Z,2.70
2018-12-04T02:18:05.027Z,1.20
2018-12-04T02:20:40.330Z,2.00
2018-12-04T02:23:15.662Z,3.43
2018-12-04T02:25:51.094Z,5.90
2018-12-04T02:28:30.794Z,3.73
2018-12-04T02:31:06.134Z,2.77
2018-12-04T02:33:41.451Z,4.23
2018-12-04T02:36:16.790Z,2.83
2018-12-04T02:38:51.989Z,1.57
2018-12-04T02:41:27.380Z,3.70
2018-12-04T02:44:02.825Z,5.47
2018-12-04T02:46:38.018Z,3.37
2018-12-04T02:49:13.594Z,3.63
2018-12-04T02:51:48.788Z,4.77
2018-12-04T02:54:24.035Z,5.30
2018-12-04T02:56:59.442Z,4.43
2018-12-04T02:59:35.812Z,6.33
2018-12-04T03:02:11.041Z,4.87
2018-12-04T03:04:46.669Z,3.53
2018-12-04T03:07:21.891Z,2.87
2018-12-04T03:09:58.516Z,4.00
2018-12-04T03:12:33.772Z,4.77
2018-12-04T03:15:09.219Z,2.50
2018-12-04T03:17:44.699Z,4.63
2018-12-04T03:20:19.981Z,3.63
2018-12-04T03:22:55.290Z,2.43
2018-12-04T03:25:30.565Z,3.17
2018-12-04T03:28:06.123Z,1.87
2018-12-04T03:30:43.707Z,3.90
2018-12-04T03:33:30.437Z,3.87
2018-12-04T03:36:06.071Z,4.77
2018-12-04T03:38:41.975Z,2.47
2018-12-04T03:41:17.326Z,2.67
2018-12-04T03:43:52.650Z,6.33
2018-12-04T03:46:28.234Z,3.53
2018-12-04T03:49:03.546Z,4.50
2018-12-04T03:51:39.068Z,2.67
2018-12-04T03:54:14.481Z,2.60
2018-12-04T03:56:50.118Z,2.23
2018-12-04T03:59:25.607Z,1.90
2018-12-04T04:02:00.887Z,2.17
2018-12-04T04:04:36.475Z,4.30
2018-12-04T04:07:11.732Z,2.33
2018-12-04T04:09:47.061Z,2.80
2018-12-04T04:12:22.351Z,6.13
2018-12-04T04:14:57.607Z,3.77
2018-12-04T04:17:33.216Z,10.33
2018-12-04T04:20:08.879Z,7.73
2018-12-04T04:22:44.417Z,11.47
2018-12-04T04:25:19.780Z,7.67
2018-12-04T04:27:55.277Z,6.37
2018-12-04T04:30:30.526Z,8.27
2018-12-04T04:33:05.963Z,6.07
2018-12-04T04:35:43.430Z,8.00
2018-12-04T04:38:18.912Z,10.13
2018-12-04T04:40:54.150Z,6.97
2018-12-04T04:43:29.494Z,7.30
2018-12-04T04:46:04.808Z,6.77
2018-12-04T04:48:40.375Z,5.60
2018-12-04T04:51:15.686Z,4.47
2018-12-04T04:53:51.011Z,8.33
2018-12-04T04:56:26.771Z,4.20
2018-12-04T04:59:03.354Z,8.40
2018-12-04T05:01:40.002Z,5.20
2018-12-04T05:04:15.392Z,3.80
2018-12-04T05:06:50.851Z,2.30
2018-12-04T05:09:26.312Z,4.87
2018-12-04T05:12:01.772Z,9.40
2018-12-04T05:14:37.141Z,5.27
2018-12-04T05:17:12.604Z,6.53
2018-12-04T05:19:47.891Z,6.50
2018-12-04T05:22:23.340Z,4.73
2018-12-04T05:24:59.840Z,6.73
2018-12-04T05:27:35.288Z,3.73
2018-12-04T05:30:10.612Z,3.80
2018-12-04T05:32:46.006Z,6.97
2018-12-04T05:35:21.316Z,7.70
2018-12-04T05:37:56.696Z,5.20
2018-12-04T05:40:32.036Z,8.17
2018-12-04T05:43:07.443Z,5.70
2018-12-04T05:45:42.717Z,7.10
2018-12-04T05:48:18.137Z,7.67
2018-12-04T05:50:53.690Z,9.07
2018-12-04T05:53:35.068Z,2.50
2018-12-04T05:56:12.577Z,2.07
2018-12-04T05:58:48.111Z,2.57
2018-12-04T06:01:23.406Z,4.63
2018-12-04T06:03:58.758Z,1.87
2018-12-04T06:06:34.122Z,4.43
2018-12-04T06:09:09.548Z,3.33
2018-12-04T06:11:45.010Z,1.90
2018-12-04T06:14:20.356Z,0.90
2018-12-04T06:16:55.699Z,3.50
2018-12-04T06:19:30.958Z,1.23
2018-12-04T06:22:06.319Z,1.77
2018-12-04T06:24:41.705Z,2.20
2018-12-04T06:27:17.210Z,1.20
2018-12-04T06:29:52.518Z,0.80
2018-12-04T06:32:28.012Z,1.67
2018-12-04T06:35:03.754Z,1.00
2018-12-04T06:37:40.314Z,2.23
2018-12-04T06:40:15.734Z,2.67
2018-12-04T06:42:50.994Z,1.20
2018-12-04T06:45:26.425Z,4.20
2018-12-04T06:48:01.966Z,0.90
2018-12-04T06:50:37.270Z,1.60
2018-12-04T06:53:12.585Z,2.37
2018-12-04T06:55:47.915Z,2.03
2018-12-04T06:58:23.236Z,1.83
2018-12-04T07:00:58.592Z,1.30
2018-12-04T07:03:34.001Z,1.50
2018-12-04T07:06:09.452Z,2.17
2018-12-04T07:08:44.851Z,1.20
2018-12-04T07:11:20.096Z,1.30
2018-12-04T07:13:55.462Z,1.20
2018-12-04T07:16:30.912Z,1.70
2018-12-04T07:19:06.433Z,2.23
2018-12-04T07:21:41.735Z,2.23
2018-12-04T07:24:17.112Z,5.73
2018-12-04T07:26:52.545Z,3.47
2018-12-04T07:29:27.821Z,4.67
2018-12-04T07:32:03.388Z,2.53
2018-12-04T07:34:39.485Z,8.07
2018-12-04T07:37:14.836Z,6.30
2018-12-04T07:39:50.368Z,5.63
2018-12-04T07:42:25.657Z,2.53
2018-12-04T07:45:00.966Z,7.27
2018-12-04T07:47:36.218Z,5.63
2018-12-04T07:50:11.530Z,3.30
2018-12-04T07:52:46.814Z,4.40
2018-12-04T07:55:22.546Z,5.93
2018-12-04T07:57:57.916Z,5.33
2018-12-04T08:00:33.393Z,4.90
2018-12-04T08:03:08.803Z,4.30
2018-12-04T08:05:44.158Z,3.57
2018-12-04T08:08:19.602Z,2.57
2018-12-04T08:10:54.840Z,2.80
2018-12-04T08:13:30.112Z,5.83
2018-12-04T08:16:05.426Z,2.87
2018-12-04T08:18:40.738Z,3.27
2018-12-04T08:21:15.965Z,2.70
2018-12-04T08:23:51.445Z,3.33
2018-12-04T08:26:26.853Z,2.77
2018-12-04T08:29:02.239Z,1.70
2018-12-04T08:31:37.668Z,3.47
2018-12-04T08:34:13.064Z,3.03
2018-12-04T08:36:48.410Z,2.57
2018-12-04T08:39:23.869Z,4.73
2018-12-04T08:41:59.261Z,3.30
2018-12-04T08:44:34.623Z,11.20
2018-12-04T08:47:10.237Z,6.23
2018-12-04T08:49:45.740Z,4.93
2018-12-04T08:52:21.028Z,5.07
2018-12-04T08:54:56.440Z,2.17
2018-12-04T08:57:31.963Z,2.20
2018-12-04T09:00:08.390Z,2.90
2018-12-04T09:02:43.763Z,2.53
2018-12-04T09:05:19.090Z,2.40
2018-12-04T09:07:55.554Z,6.30
2018-12-04T09:10:30.852Z,4.80
2018-12-04T09:13:06.236Z,2.60
2018-12-04T09:15:42.696Z,1.93
2018-12-04T09:18:18.276Z,2.73
2018-12-04T09:20:53.876Z,4.27
2018-12-04T09:23:29.167Z,14.93
2018-12-04T09:26:04.775Z,2.43
2018-12-04T09:28:40.373Z,5.33
2018-12-04T09:31:15.742Z,4.77
2018-12-04T09:33:50.935Z,4.43
2018-12-04T09:36:26.399Z,8.63
2018-12-04T09:39:01.856Z,2.27
2018-12-04T09:41:37.568Z,2.07
2018-12-04T09:44:13.102Z,3.30
2018-12-04T09:46:48.449Z,4.43
2018-12-04T09:49:23.722Z,2.30
2018-12-04T09:51:59.153Z,4.00
2018-12-04T09:54:34.587Z,7.70
2018-12-04T09:57:10.190Z,2.03
2018-12-04T09:59:45.652Z,2.27
2018-12-04T10:02:20.974Z,1.80
2018-12-04T10:04:56.497Z,2.90
2018-12-04T10:07:31.800Z,2.10
2018-12-04T10:10:08.601Z,3.60
2018-12-04T10:12:43.954Z,5.00
2018-12-04T10:15:19.576Z,2.93
2018-12-04T10:18:00.002Z,4.13
2018-12-04T10:20:40.615Z,2.73
2018-12-04T10:23:20.478Z,6.07
2018-12-04T10:26:00.782Z,5.23
2018-12-04T10:28:41.082Z,3.57
2018-12-04T10:31:22.137Z,5.63
2018-12-04T10:34:03.293Z,4.10
2018-12-04T10:36:44.797Z,3.33
2018-12-04T10:39:26.120Z,4.77
2018-12-04T10:42:06.446Z,1.53
2018-12-04T10:44:47.667Z,6.33
2018-12-04T10:47:26.989Z,6.30
2018-12-04T10:50:10.478Z,1.50
2018-12-04T10:52:50.036Z,4.30
2018-12-04T10:55:31.715Z,3.93
2018-12-04T10:58:11.100Z,2.50
2018-12-04T11:00:56.769Z,2.10
2018-12-04T11:03:40.753Z,2.60
2018-12-04T11:06:20.423Z,2.30
2018-12-04T11:09:00.370Z,1.77
2018-12-04T11:11:39.759Z,1.60
2018-12-04T11:14:18.732Z,1.60
2018-12-04T11:16:58.479Z,3.83
2018-12-04T11:19:37.563Z,3.00
2018-12-04T11:22:16.822Z,3.33
2018-12-04T11:24:56.301Z,4.47
2018-12-04T11:27:36.733Z,1.30
2018-12-04T11:30:15.026Z,1.73
2018-12-04T11:32:54.334Z,1.57
2018-12-04T11:35:33.790Z,1.43
2018-12-04T11:38:12.566Z,2.33
2018-12-04T11:40:51.474Z,1.77
2018-12-04T11:43:30.027Z,2.97
2018-12-04T11:46:08.493Z,4.63
2018-12-04T11:48:47.548Z,2.00
2018-12-04T11:51:25.951Z,4.03
2018-12-04T11:54:06.155Z,2.03
2018-12-04T11:56:45.077Z,2.67
2018-12-04T11:59:23.752Z,1.80
2018-12-04T12:02:02.572Z,2.07
2018-12-04T12:04:41.335Z,4.03
2018-12-04T12:07:22.683Z,3.17
2018-12-04T12:10:01.478Z,2.60
2018-12-04T12:12:40.361Z,1.80
2018-12-04T12:15:19.735Z,2.87
2018-12-04T12:17:59.015Z,3.70
2018-12-04T12:20:38.205Z,2.03
2018-12-04T12:23:13.885Z,2.03
2018-12-04T12:25:49.494Z,3.20
2018-12-04T12:28:24.826Z,3.50
2018-12-04T12:31:00.073Z,2.17
2018-12-04T12:33:35.280Z,3.20
2018-12-04T12:36:10.653Z,4.57
2018-12-04T12:38:46.014Z,6.43
2018-12-04T12:41:21.361Z,3.63
2018-12-04T12:46:32.884Z,5.07
2018-12-04T12:49:08.358Z,6.87
2018-12-04T12:51:44.133Z,5.50
2018-12-04T12:54:19.838Z,16.57
2018-12-04T12:56:55.427Z,6.80
2018-12-04T12:59:30.731Z,2.73
2018-12-04T13:02:06.134Z,2.50
2018-12-04T13:04:41.534Z,6.53
2018-12-04T13:07:16.972Z,2.33
2018-12-04T13:09:52.457Z,5.30
2018-12-04T13:12:27.703Z,13.83
2018-12-04T13:15:03.022Z,15.00
2018-12-04T13:17:38.349Z,7.93
2018-12-04T13:20:13.652Z,14.67
2018-12-04T13:22:49.012Z,3.23
2018-12-04T13:25:24.452Z,4.47
2018-12-04T13:27:59.890Z,35.33
2018-12-04T13:30:35.223Z,19.93
2018-12-04T13:33:10.771Z,3.27
2018-12-04T13:35:46.239Z,4.23
2018-12-04T13:38:21.638Z,8.67
2018-12-04T13:40:56.977Z,3.87
2018-12-04T13:43:32.404Z,2.80
2018-12-04T13:46:07.683Z,16.57
2018-12-04T13:48:43.080Z,24.87
2018-12-04T13:51:18.253Z,8.97
2018-12-04T13:53:53.670Z,12.07
2018-12-04T13:56:29.030Z,18.47
2018-12-04T13:59:04.497Z,14.70
2018-12-04T14:01:39.821Z,8.83
2018-12-04T14:04:17.206Z,19.30
2018-12-04T14:06:52.355Z,22.10
2018-12-04T14:09:27.906Z,4.37
2018-12-04T14:12:03.359Z,16.30
2018-12-04T14:14:38.675Z,27.80
2018-12-04T14:17:13.998Z,9.90
2018-12-04T14:19:49.274Z,9.73
2018-12-04T14:22:24.496Z,24.53
2018-12-04T14:25:00.059Z,39.80
2018-12-04T14:27:35.403Z,21.53
2018-12-04T14:30:12.610Z,15.57
2018-12-04T14:32:48.186Z,18.33
2018-12-04T14:35:23.460Z,11.53
2018-12-04T14:38:00.172Z,10.20
2018-12-04T14:40:35.633Z,9.50
2018-12-04T14:43:11.029Z,8.10
2018-12-04T14:45:46.437Z,3.40
2018-12-04T14:48:21.925Z,7.77
2018-12-04T14:50:57.301Z,6.10
2018-12-04T14:53:32.792Z,5.10
2018-12-04T14:56:08.195Z,4.43
2018-12-04T14:58:43.559Z,4.40
2018-12-04T15:01:19.150Z,3.97
2018-12-04T15:03:54.546Z,3.90
2018-12-04T15:06:29.846Z,3.70
2018-12-04T15:09:07.062Z,4.30
2018-12-04T15:11:43.593Z,5.73
2018-12-04T15:14:18.960Z,11.27
2018-12-04T15:16:55.102Z,4.60
2018-12-04T15:19:30.879Z,6.33
2018-12-04T15:22:06.392Z,6.57
2018-12-04T15:24:41.803Z,6.17
2018-12-04T15:27:17.439Z,9.23
2018-12-04T15:29:52.919Z,5.93
2018-12-04T15:32:28.218Z,10.60
2018-12-04T15:35:03.847Z,6.03
2018-12-04T15:37:39.318Z,6.90
2018-12-04T15:40:14.553Z,8.30
2018-12-04T15:42:49.880Z,5.27
2018-12-04T15:45:25.443Z,8.67
2018-12-04T15:48:00.910Z,6.10
2018-12-04T15:50:36.379Z,9.03
2018-12-04T15:53:11.739Z,6.60
2018-12-04T15:55:47.271Z,5.57
2018-12-04T15:58:22.571Z,7.57
2018-12-04T16:00:58.016Z,6.70
2018-12-04T16:03:33.490Z,8.43
2018-12-04T16:06:08.850Z,15.60
2018-12-04T16:08:44.272Z,22.13
2018-12-04T16:11:19.568Z,27.83
2018-12-04T16:13:55.030Z,23.20
2018-12-04T16:16:30.567Z,8.70
2018-12-04T16:19:06.058Z,5.57
2018-12-04T16:21:41.430Z,6.87
2018-12-04T16:24:16.804Z,7.10
2018-12-04T16:26:52.348Z,27.83
2018-12-04T16:29:27.655Z,30.17
2018-12-04T16:32:02.861Z,24.30
2018-12-04T16:34:38.228Z,31.00
2018-12-04T16:37:13.430Z,19.10
2018-12-04T16:39:49.130Z,10.97
2018-12-04T16:42:24.610Z,8.07
2018-12-04T16:44:59.844Z,7.37
2018-12-04T16:47:35.206Z,17.87
2018-12-04T16:50:10.697Z,21.00
2018-12-04T16:52:46.212Z,10.47
2018-12-04T16:55:21.666Z,10.07
2018-12-04T16:57:56.920Z,6.10
2018-12-04T17:00:32.413Z,7.20
2018-12-04T17:03:07.836Z,15.53
2018-12-04T17:05:43.165Z,16.20
2018-12-04T17:08:18.676Z,28.03
2018-12-04T17:10:53.996Z,11.87
2018-12-04T17:13:29.588Z,10.37
2018-12-04T17:16:04.838Z,7.93
2018-12-04T17:18:39.966Z,7.60
2018-12-04T17:21:15.395Z,8.23
2018-12-04T17:23:50.864Z,8.77
2018-12-04T17:26:26.603Z,7.17
2018-12-04T17:29:02.107Z,10.67
2018-12-04T17:31:37.429Z,7.33
2018-12-04T17:34:12.915Z,9.60
2018-12-04T17:36:48.349Z,10.63
2018-12-04T17:39:23.918Z,10.30
2018-12-04T17:41:59.384Z,9.77
2018-12-04T17:44:40.228Z,10.47
2018-12-04T17:47:12.308Z,7.97
2018-12-04T17:49:47.849Z,11.10
2018-12-04T17:52:23.723Z,10.90
2018-12-04T17:54:59.080Z,12.23
2018-12-04T17:57:34.502Z,12.40
2018-12-04T18:00:12.340Z,11.40
2018-12-04T18:02:49.850Z,9.77
2018-12-04T18:05:25.301Z,10.30
2018-12-04T18:08:00.649Z,13.17
2018-12-04T18:10:35.940Z,14.60
2018-12-04T18:13:11.465Z,20.23
2018-12-04T18:15:48.923Z,15.60
2018-12-04T18:18:24.677Z,18.93
2018-12-04T18:21:00.144Z,15.17
2018-12-04T18:23:38.546Z,13.67
2018-12-04T18:26:13.707Z,12.13
2018-12-04T18:28:49.096Z,13.23
2018-12-04T18:31:24.517Z,14.63
2018-12-04T18:33:59.878Z,12.63
2018-12-04T18:36:35.365Z,20.73
2018-12-04T18:39:10.837Z,47.23
2018-12-04T18:41:46.257Z,28.77
2018-12-04T18:44:21.913Z,17.00
2018-12-04T18:46:57.329Z,11.87
2018-12-04T18:49:32.806Z,12.57
2018-12-04T18:52:08.012Z,12.30
2018-12-04T18:54:43.361Z,13.83
2018-12-04T18:57:18.640Z,14.33
2018-12-04T18:59:54.033Z,90.43
2018-12-04T19:02:29.300Z,49.37
2018-12-04T19:05:05.262Z,20.67
2018-12-04T19:07:40.718Z,11.63
2018-12-04T19:10:16.237Z,15.53
2018-12-04T19:12:51.603Z,14.23
2018-12-04T19:15:26.914Z,13.70
2018-12-04T19:18:02.289Z,15.73
2018-12-04T19:20:37.766Z,17.17
2018-12-04T19:23:13.193Z,17.80
2018-12-04T19:25:48.689Z,16.60
2018-12-04T19:28:24.014Z,19.20
2018-12-04T19:31:02.888Z,15.50
2018-12-04T19:33:37.086Z,20.93
2018-12-04T19:36:12.450Z,27.40
2018-12-04T19:38:47.976Z,27.27
2018-12-04T19:41:23.271Z,19.97
2018-12-04T19:43:58.517Z,18.10
2018-12-04T19:46:33.782Z,24.40
2018-12-04T19:49:09.300Z,24.37
2018-12-04T19:51:44.698Z,15.70
2018-12-04T19:54:20.066Z,18.67
2018-12-04T19:56:55.381Z,13.17
2018-12-04T19:59:30.842Z,19.30
2018-12-04T20:02:06.204Z,17.97
2018-12-04T20:04:41.562Z,16.50
2018-12-04T20:07:16.894Z,14.97
2018-12-04T20:09:52.214Z,20.57
2018-12-04T20:12:27.407Z,13.43
2018-12-04T20:15:02.809Z,14.10
2018-12-04T20:17:38.224Z,15.60
2018-12-04T20:20:13.527Z,15.57
2018-12-04T20:22:49.027Z,12.43
2018-12-04T20:25:24.465Z,14.70
2018-12-04T20:27:59.891Z,14.70
2018-12-04T20:30:35.162Z,17.63
2018-12-04T20:33:10.674Z,16.97
2018-12-04T20:35:46.046Z,18.17
2018-12-04T20:38:21.366Z,17.00
2018-12-04T20:40:56.776Z,17.20
2018-12-04T20:43:32.255Z,19.57
2018-12-04T20:46:07.679Z,15.70
2018-12-04T20:48:43.044Z,18.03
2018-12-04T20:51:18.363Z,16.23
2018-12-04T20:53:53.714Z,22.03
2018-12-04T20:56:29.014Z,18.53
2018-12-04T20:59:04.620Z,22.03
2018-12-04T21:01:39.952Z,17.60
2018-12-04T21:04:15.350Z,18.17
2018-12-04T21:06:50.686Z,17.43
2018-12-04T21:09:26.555Z,14.07
2018-12-04T21:12:02.008Z,20.08
2018-12-04T21:14:37.534Z,15.93
2018-12-04T21:17:13.063Z,19.40
2018-12-04T21:19:48.315Z,17.50
2018-12-04T21:22:23.837Z,15.30
2018-12-04T21:24:59.160Z,16.70
2018-12-04T21:27:39.962Z,18.27
2018-12-04T21:30:20.778Z,21.97
2018-12-04T21:33:01.626Z,16.97
2018-12-04T21:35:42.648Z,20.63
2018-12-04T21:38:23.193Z,16.00
2018-12-04T21:41:01.034Z,17.43
2018-12-04T21:43:43.261Z,15.30
2018-12-04T21:46:24.335Z,17.27
2018-12-04T21:48:59.642Z,17.73
2018-12-04T21:51:36.181Z,16.70
2018-12-04T21:54:11.588Z,17.23
2018-12-04T21:56:47.945Z,17.23
2018-12-04T21:59:24.175Z,15.80
2018-12-04T22:02:00.523Z,15.93
2018-12-04T22:04:36.038Z,18.23
2018-12-04T22:07:11.418Z,16.00
2018-12-04T22:09:47.203Z,18.63
2018-12-04T22:12:23.265Z,21.97
2018-12-04T22:14:59.403Z,23.20
2018-12-04T22:17:35.413Z,21.60
2018-12-04T22:20:11.144Z,22.53
2018-12-04T22:22:46.640Z,18.63
2018-12-04T22:25:22.196Z,19.70
2018-12-04T22:27:57.956Z,24.60
2018-12-04T22:30:33.917Z,23.20
2018-12-04T22:33:10.666Z,24.53
2018-12-04T22:35:47.177Z,21.43
2018-12-04T22:38:23.272Z,19.77
2018-12-04T22:41:00.384Z,23.70
2018-12-04T22:43:35.911Z,23.90
2018-12-04T22:46:11.608Z,20.87
2018-12-04T22:48:47.606Z,20.53
2018-12-04T22:51:23.468Z,20.67
2018-12-04T22:53:58.778Z,17.60
2018-12-04T22:56:34.088Z,19.03
2018-12-04T22:59:09.577Z,17.77
2018-12-04T23:01:44.986Z,20.63
2018-12-04T23:04:20.385Z,19.03
2018-12-04T23:06:55.890Z,18.57
2018-12-04T23:09:31.966Z,21.37
2018-12-04T23:12:08.039Z,17.37
2018-12-04T23:14:44.172Z,17.93
2018-12-04T23:17:19.808Z,20.37
2018-12-04T23:19:55.283Z,15.40
2018-12-04T23:22:30.559Z,17.13
2018-12-04T23:25:06.219Z,17.63
2018-12-04T23:27:41.734Z,17.43
2018-12-04T23:30:17.426Z,15.40
2018-12-04T23:32:52.858Z,23.97
2018-12-04T23:35:28.425Z,19.60
2018-12-04T23:38:03.718Z,22.70
2018-12-04T23:40:39.041Z,24.60
2018-12-04T23:43:14.552Z,24.90
2018-12-04T23:45:49.895Z,24.20
2018-12-04T23:48:25.352Z,24.00
2018-12-04T23:51:00.844Z,32.35
2018-12-04T23:53:36.270Z,25.30
2018-12-04T23:56:11.815Z,24.63
2018-12-04T23:58:47.303Z,26.00
